sensor_id;sensor_type;location;lat;lon;timestamp;pressure;altitude;pressure_sealevel;temperature;humidity
31044;BME280;17710;52.520;13.352;2023-04-25T00:01:03;100219.72;;;13.71;50.27
31044;BME280;17710;52.520;13.352;2023-04-25T00:03:30;100213.09;;;13.47;50.91
31044;BME280;17710;52.520;13.352;2023-04-25T00:05:57;100230.81;;;13.46;50.55
31044;BME280;17710;52.520;13.352;2023-04-25T00:08:24;100227.50;;;13.43;50.44
31044;BME280;17710;52.520;13.352;2023-04-25T00:10:50;100220.16;;;13.64;50.01
31044;BME280;17710;52.520;13.352;2023-04-25T00:13:17;100219.56;;;13.59;49.72
31044;BME280;17710;52.520;13.352;2023-04-25T00:15:45;100219.09;;;13.66;49.49
31044;BME280;17710;52.520;13.352;2023-04-25T00:18:13;100215.06;;;13.59;49.49
31044;BME280;17710;52.520;13.352;2023-04-25T00:20:39;100221.69;;;13.52;49.42
31044;BME280;17710;52.520;13.352;2023-04-25T00:23:11;100214.06;;;13.77;48.89
31044;BME280;17710;52.520;13.352;2023-04-25T00:25:38;100217.44;;;13.95;48.43
31044;BME280;17710;52.520;13.352;2023-04-25T00:28:04;100219.53;;;13.74;48.65
31044;BME280;17710;52.520;13.352;2023-04-25T00:30:30;100220.72;;;13.69;48.66
31044;BME280;17710;52.520;13.352;2023-04-25T00:32:58;100218.50;;;13.61;48.84
31044;BME280;17710;52.520;13.352;2023-04-25T00:35:24;100215.34;;;13.70;48.85
31044;BME280;17710;52.520;13.352;2023-04-25T00:37:51;100210.53;;;13.61;48.85
31044;BME280;17710;52.520;13.352;2023-04-25T00:40:17;100212.41;;;13.59;49.20
31044;BME280;17710;52.520;13.352;2023-04-25T00:42:44;100209.69;;;13.61;48.93
31044;BME280;17710;52.520;13.352;2023-04-25T00:45:12;100212.59;;;13.56;49.00
31044;BME280;17710;52.520;13.352;2023-04-25T00:47:40;100208.41;;;13.68;48.77
31044;BME280;17710;52.520;13.352;2023-04-25T00:50:09;100207.81;;;13.78;48.55
31044;BME280;17710;52.520;13.352;2023-04-25T00:52:36;100211.06;;;13.52;49.19
31044;BME280;17710;52.520;13.352;2023-04-25T00:55:04;100207.81;;;13.78;48.70
31044;BME280;17710;52.520;13.352;2023-04-25T00:57:31;100214.72;;;13.81;48.62
31044;BME280;17710;52.520;13.352;2023-04-25T00:59:58;100213.56;;;14.01;48.31
31044;BME280;17710;52.520;13.352;2023-04-25T01:02:26;100206.69;;;14.12;48.05
31044;BME280;17710;52.520;13.352;2023-04-25T01:04:53;100207.69;;;13.95;48.27
31044;BME280;17710;52.520;13.352;2023-04-25T01:07:20;100208.00;;;13.44;49.47
31044;BME280;17710;52.520;13.352;2023-04-25T01:09:47;100196.84;;;13.53;49.23
31044;BME280;17710;52.520;13.352;2023-04-25T01:12:14;100198.63;;;13.52;49.28
31044;BME280;17710;52.520;13.352;2023-04-25T01:14:40;100202.31;;;13.19;50.17
31044;BME280;17710;52.520;13.352;2023-04-25T01:17:07;100199.00;;;13.31;49.75
31044;BME280;17710;52.520;13.352;2023-04-25T01:19:34;100193.66;;;13.46;49.51
31044;BME280;17710;52.520;13.352;2023-04-25T01:22:03;100193.09;;;13.57;49.05
31044;BME280;17710;52.520;13.352;2023-04-25T01:24:30;100188.38;;;13.62;49.06
31044;BME280;17710;52.520;13.352;2023-04-25T01:26:58;100195.75;;;13.57;49.19
31044;BME280;17710;52.520;13.352;2023-04-25T01:29:26;100191.13;;;13.45;49.26
31044;BME280;17710;52.520;13.352;2023-04-25T01:31:53;100191.88;;;13.47;49.41
31044;BME280;17710;52.520;13.352;2023-04-25T01:34:20;100192.31;;;13.24;49.91
31044;BME280;17710;52.520;13.352;2023-04-25T01:36:49;100191.34;;;13.40;49.83
31044;BME280;17710;52.520;13.352;2023-04-25T01:39:17;100190.34;;;13.43;49.69
31044;BME280;17710;52.520;13.352;2023-04-25T01:41:44;100196.59;;;13.42;49.74
31044;BME280;17710;52.520;13.352;2023-04-25T01:44:11;100195.97;;;13.21;50.08
31044;BME280;17710;52.520;13.352;2023-04-25T01:46:37;100184.59;;;13.35;49.78
31044;BME280;17710;52.520;13.352;2023-04-25T01:49:03;100186.75;;;13.28;50.22
31044;BME280;17710;52.520;13.352;2023-04-25T01:51:30;100199.22;;;12.93;50.55
31044;BME280;17710;52.520;13.352;2023-04-25T01:53:57;100189.94;;;13.02;50.68
31044;BME280;17710;52.520;13.352;2023-04-25T01:56:29;100200.09;;;13.27;50.16
31044;BME280;17710;52.520;13.352;2023-04-25T01:58:56;100197.09;;;13.17;50.18
31044;BME280;17710;52.520;13.352;2023-04-25T02:01:23;100193.53;;;13.01;50.50
31044;BME280;17710;52.520;13.352;2023-04-25T02:03:49;100196.16;;;13.34;50.04
31044;BME280;17710;52.520;13.352;2023-04-25T02:06:15;100191.16;;;13.12;50.61
31044;BME280;17710;52.520;13.352;2023-04-25T02:08:42;100190.84;;;13.18;50.32
31044;BME280;17710;52.520;13.352;2023-04-25T02:11:08;100193.28;;;13.38;49.67
31044;BME280;17710;52.520;13.352;2023-04-25T02:13:36;100193.09;;;13.26;49.98
31044;BME280;17710;52.520;13.352;2023-04-25T02:16:02;100194.19;;;13.22;50.23
31044;BME280;17710;52.520;13.352;2023-04-25T02:18:29;100189.94;;;13.02;50.61
31044;BME280;17710;52.520;13.352;2023-04-25T02:20:56;100188.09;;;12.87;51.07
31044;BME280;17710;52.520;13.352;2023-04-25T02:23:22;100198.81;;;12.85;51.09
31044;BME280;17710;52.520;13.352;2023-04-25T02:25:49;100199.00;;;12.98;50.92
31044;BME280;17710;52.520;13.352;2023-04-25T02:28:16;100198.28;;;12.94;50.98
31044;BME280;17710;52.520;13.352;2023-04-25T02:30:43;100197.34;;;12.95;50.88
31044;BME280;17710;52.520;13.352;2023-04-25T02:33:10;100195.63;;;13.27;50.23
31044;BME280;17710;52.520;13.352;2023-04-25T02:35:36;100203.69;;;13.41;49.60
31044;BME280;17710;52.520;13.352;2023-04-25T02:38:02;100191.53;;;13.22;50.31
31044;BME280;17710;52.520;13.352;2023-04-25T02:40:29;100192.84;;;12.97;50.83
31044;BME280;17710;52.520;13.352;2023-04-25T02:42:55;100195.38;;;13.16;50.63
31044;BME280;17710;52.520;13.352;2023-04-25T02:45:21;100189.72;;;13.22;50.21
31044;BME280;17710;52.520;13.352;2023-04-25T02:47:49;100189.28;;;13.14;50.27
31044;BME280;17710;52.520;13.352;2023-04-25T02:50:15;100191.31;;;13.09;50.70
31044;BME280;17710;52.520;13.352;2023-04-25T02:52:43;100197.78;;;13.21;50.75
31044;BME280;17710;52.520;13.352;2023-04-25T02:55:10;100190.94;;;13.16;50.47
31044;BME280;17710;52.520;13.352;2023-04-25T02:57:37;100184.91;;;13.13;50.58
31044;BME280;17710;52.520;13.352;2023-04-25T03:00:04;100192.31;;;13.06;50.76
31044;BME280;17710;52.520;13.352;2023-04-25T03:02:31;100191.16;;;13.12;50.65
31044;BME280;17710;52.520;13.352;2023-04-25T03:04:59;100192.16;;;13.09;50.80
31044;BME280;17710;52.520;13.352;2023-04-25T03:07:26;100188.53;;;12.79;51.58
31044;BME280;17710;52.520;13.352;2023-04-25T03:09:52;100184.28;;;12.92;51.12
31044;BME280;17710;52.520;13.352;2023-04-25T03:12:19;100190.19;;;12.97;51.09
31044;BME280;17710;52.520;13.352;2023-04-25T03:14:45;100184.69;;;13.33;50.26
31044;BME280;17710;52.520;13.352;2023-04-25T03:17:11;100188.47;;;13.45;49.72
31044;BME280;17710;52.520;13.352;2023-04-25T03:19:38;100184.94;;;13.60;49.45
31044;BME280;17710;52.520;13.352;2023-04-25T03:22:05;100192.19;;;13.72;49.27
31044;BME280;17710;52.520;13.352;2023-04-25T03:24:32;100194.81;;;13.58;49.22
31044;BME280;17710;52.520;13.352;2023-04-25T03:26:58;100205.06;;;13.48;49.47
31044;BME280;17710;52.520;13.352;2023-04-25T03:29:25;100195.56;;;13.60;49.68
31044;BME280;17710;52.520;13.352;2023-04-25T03:31:52;100191.19;;;13.43;49.94
31044;BME280;17710;52.520;13.352;2023-04-25T03:34:19;100195.97;;;13.68;49.11
31044;BME280;17710;52.520;13.352;2023-04-25T03:36:46;100197.88;;;13.35;49.94
31044;BME280;17710;52.520;13.352;2023-04-25T03:39:14;100200.94;;;13.27;50.40
31044;BME280;17710;52.520;13.352;2023-04-25T03:41:40;100193.28;;;13.38;49.90
31044;BME280;17710;52.520;13.352;2023-04-25T03:44:07;100202.31;;;13.34;50.09
31044;BME280;17710;52.520;13.352;2023-04-25T03:46:33;100201.72;;;13.61;49.63
31044;BME280;17710;52.520;13.352;2023-04-25T03:49:00;100202.84;;;13.41;50.10
31044;BME280;17710;52.520;13.352;2023-04-25T03:51:26;100201.31;;;13.37;50.01
31044;BME280;17710;52.520;13.352;2023-04-25T03:53:52;100205.91;;;13.33;50.22
31044;BME280;17710;52.520;13.352;2023-04-25T03:56:20;100207.66;;;13.50;49.78
31044;BME280;17710;52.520;13.352;2023-04-25T03:58:47;100207.78;;;13.47;49.96
31044;BME280;17710;52.520;13.352;2023-04-25T04:01:13;100202.00;;;13.25;50.51
31044;BME280;17710;52.520;13.352;2023-04-25T04:03:40;100207.78;;;13.47;50.03
31044;BME280;17710;52.520;13.352;2023-04-25T04:06:07;100209.44;;;13.49;49.86
31044;BME280;17710;52.520;13.352;2023-04-25T04:08:36;100214.91;;;13.62;49.62
31044;BME280;17710;52.520;13.352;2023-04-25T04:11:03;100216.53;;;13.80;48.97
31044;BME280;17710;52.520;13.352;2023-04-25T04:13:31;100213.13;;;13.63;49.33
31044;BME280;17710;52.520;13.352;2023-04-25T04:15:58;100220.56;;;13.56;49.70
31044;BME280;17710;52.520;13.352;2023-04-25T04:18:24;100225.53;;;13.31;50.35
31044;BME280;17710;52.520;13.352;2023-04-25T04:20:51;100221.34;;;13.42;50.38
31044;BME280;17710;52.520;13.352;2023-04-25T04:23:19;100225.13;;;13.38;50.02
31044;BME280;17710;52.520;13.352;2023-04-25T04:25:45;100222.38;;;13.71;49.28
31044;BME280;17710;52.520;13.352;2023-04-25T04:28:12;100222.19;;;13.74;49.32
31044;BME280;17710;52.520;13.352;2023-04-25T04:30:39;100225.84;;;13.87;49.13
31044;BME280;17710;52.520;13.352;2023-04-25T04:33:06;100230.03;;;13.91;48.60
31044;BME280;17710;52.520;13.352;2023-04-25T04:35:32;100229.63;;;13.83;48.84
31044;BME280;17710;52.520;13.352;2023-04-25T04:37:59;100234.25;;;13.95;48.60
31044;BME280;17710;52.520;13.352;2023-04-25T04:40:25;100228.00;;;13.96;48.52
31044;BME280;17710;52.520;13.352;2023-04-25T04:42:51;100235.34;;;13.91;48.53
31044;BME280;17710;52.520;13.352;2023-04-25T04:45:21;100238.84;;;14.08;48.44
31044;BME280;17710;52.520;13.352;2023-04-25T04:47:49;100246.50;;;13.67;49.10
31044;BME280;17710;52.520;13.352;2023-04-25T04:50:16;100242.84;;;13.69;49.38
31044;BME280;17710;52.520;13.352;2023-04-25T04:52:43;100239.31;;;13.84;49.07
31044;BME280;17710;52.520;13.352;2023-04-25T04:55:09;100237.69;;;13.82;49.07
31044;BME280;17710;52.520;13.352;2023-04-25T04:57:36;100243.22;;;13.93;48.57
31044;BME280;17710;52.520;13.352;2023-04-25T05:00:04;100239.97;;;14.04;48.59
31044;BME280;17710;52.520;13.352;2023-04-25T05:02:32;100240.50;;;13.94;48.79
31044;BME280;17710;52.520;13.352;2023-04-25T05:04:59;100244.31;;;14.05;48.59
31044;BME280;17710;52.520;13.352;2023-04-25T05:07:25;100250.53;;;13.89;48.77
31044;BME280;17710;52.520;13.352;2023-04-25T05:09:52;100249.31;;;13.95;48.82
31044;BME280;17710;52.520;13.352;2023-04-25T05:12:18;100251.81;;;13.82;49.09
31044;BME280;17710;52.520;13.352;2023-04-25T05:14:44;100253.19;;;13.74;49.25
31044;BME280;17710;52.520;13.352;2023-04-25T05:17:11;100245.06;;;13.61;49.64
31044;BME280;17710;52.520;13.352;2023-04-25T05:19:39;100250.19;;;13.95;49.13
31044;BME280;17710;52.520;13.352;2023-04-25T05:22:07;100255.22;;;14.00;48.65
31044;BME280;17710;52.520;13.352;2023-04-25T05:24:33;100257.47;;;13.76;49.01
31044;BME280;17710;52.520;13.352;2023-04-25T05:26:59;100256.00;;;13.24;50.42
31044;BME280;17710;52.520;13.352;2023-04-25T05:29:26;100251.97;;;13.48;50.24
31044;BME280;17710;52.520;13.352;2023-04-25T05:31:52;100258.16;;;13.64;49.76
31044;BME280;17710;52.520;13.352;2023-04-25T05:34:18;100256.94;;;13.85;49.27
31044;BME280;17710;52.520;13.352;2023-04-25T05:36:45;100259.69;;;14.00;48.69
31044;BME280;17710;52.520;13.352;2023-04-25T05:39:14;100257.38;;;13.93;48.66
31044;BME280;17710;52.520;13.352;2023-04-25T05:41:41;100255.75;;;13.91;49.07
31044;BME280;17710;52.520;13.352;2023-04-25T05:44:07;100262.34;;;13.68;49.63
31044;BME280;17710;52.520;13.352;2023-04-25T05:46:34;100268.00;;;13.62;50.27
31044;BME280;17710;52.520;13.352;2023-04-25T05:49:00;100264.50;;;13.77;49.85
31044;BME280;17710;52.520;13.352;2023-04-25T05:51:27;100268.78;;;13.64;50.38
31044;BME280;17710;52.520;13.352;2023-04-25T05:53:53;100273.00;;;13.84;50.02
31044;BME280;17710;52.520;13.352;2023-04-25T05:56:21;100275.41;;;14.18;49.15
31044;BME280;17710;52.520;13.352;2023-04-25T05:58:47;100269.41;;;14.30;48.69
31044;BME280;17710;52.520;13.352;2023-04-25T06:01:13;100273.09;;;14.28;48.95
31044;BME280;17710;52.520;13.352;2023-04-25T06:03:40;100279.78;;;14.19;49.22
31044;BME280;17710;52.520;13.352;2023-04-25T06:06:08;100281.34;;;14.08;49.61
31044;BME280;17710;52.520;13.352;2023-04-25T06:08:34;100279.28;;;14.13;49.77
31044;BME280;17710;52.520;13.352;2023-04-25T06:11:01;100283.91;;;14.41;49.17
31044;BME280;17710;52.520;13.352;2023-04-25T06:13:28;100287.94;;;13.85;50.19
31044;BME280;17710;52.520;13.352;2023-04-25T06:15:55;100295.31;;;13.80;50.60
31044;BME280;17710;52.520;13.352;2023-04-25T06:18:21;100290.78;;;13.82;51.19
31044;BME280;17710;52.520;13.352;2023-04-25T06:20:48;100291.34;;;14.34;49.62
31044;BME280;17710;52.520;13.352;2023-04-25T06:23:14;100287.09;;;14.16;49.87
31044;BME280;17710;52.520;13.352;2023-04-25T06:25:40;100291.19;;;14.37;49.45
31044;BME280;17710;52.520;13.352;2023-04-25T06:28:07;100288.28;;;14.42;49.45
31044;BME280;17710;52.520;13.352;2023-04-25T06:30:35;100295.50;;;14.84;48.30
31044;BME280;17710;52.520;13.352;2023-04-25T06:33:01;100295.78;;;14.33;49.11
31044;BME280;17710;52.520;13.352;2023-04-25T06:35:28;100298.81;;;14.12;50.05
31044;BME280;17710;52.520;13.352;2023-04-25T06:37:54;100290.50;;;14.18;49.89
31044;BME280;17710;52.520;13.352;2023-04-25T06:40:21;100293.03;;;13.89;50.69
31044;BME280;17710;52.520;13.352;2023-04-25T06:42:47;100291.81;;;14.11;50.63
31044;BME280;17710;52.520;13.352;2023-04-25T06:45:14;100299.44;;;14.17;50.43
31044;BME280;17710;52.520;13.352;2023-04-25T06:47:42;100300.59;;;14.27;50.11
31044;BME280;17710;52.520;13.352;2023-04-25T06:50:09;100296.22;;;14.26;50.36
31044;BME280;17710;52.520;13.352;2023-04-25T06:52:37;100301.28;;;14.46;50.04
31044;BME280;17710;52.520;13.352;2023-04-25T06:55:04;100295.88;;;14.48;49.74
31044;BME280;17710;52.520;13.352;2023-04-25T06:57:31;100303.13;;;14.14;50.31
31044;BME280;17710;52.520;13.352;2023-04-25T07:00:00;100302.50;;;14.25;50.28
31044;BME280;17710;52.520;13.352;2023-04-25T07:02:45;100303.63;;;14.05;51.12
31044;BME280;17710;52.520;13.352;2023-04-25T07:05:11;100299.81;;;14.25;50.49
31044;BME280;17710;52.520;13.352;2023-04-25T07:07:38;100308.94;;;13.74;51.55
31044;BME280;17710;52.520;13.352;2023-04-25T07:10:04;100316.75;;;13.77;51.82
31044;BME280;17710;52.520;13.352;2023-04-25T07:12:31;100314.81;;;13.47;52.98
31044;BME280;17710;52.520;13.352;2023-04-25T07:14:58;100319.06;;;13.83;52.17
31044;BME280;17710;52.520;13.352;2023-04-25T07:17:27;100322.69;;;13.98;51.89
31044;BME280;17710;52.520;13.352;2023-04-25T07:19:54;100324.03;;;14.05;52.05
31044;BME280;17710;52.520;13.352;2023-04-25T07:22:21;100330.03;;;13.92;51.95
31044;BME280;17710;52.520;13.352;2023-04-25T07:24:48;100337.56;;;14.16;51.68
31044;BME280;17710;52.520;13.352;2023-04-25T07:27:14;100333.13;;;14.01;51.14
31044;BME280;17710;52.520;13.352;2023-04-25T07:29:40;100341.84;;;14.18;50.62
31044;BME280;17710;52.520;13.352;2023-04-25T07:32:07;100346.47;;;14.46;49.90
31044;BME280;17710;52.520;13.352;2023-04-25T07:34:35;100343.78;;;14.62;49.25
31044;BME280;17710;52.520;13.352;2023-04-25T07:37:04;100336.69;;;14.62;47.88
31044;BME280;17710;52.520;13.352;2023-04-25T07:39:30;100347.00;;;14.83;46.97
31044;BME280;17710;52.520;13.352;2023-04-25T07:41:57;100348.19;;;14.77;46.98
31044;BME280;17710;52.520;13.352;2023-04-25T07:44:25;100347.41;;;14.45;46.51
31044;BME280;17710;52.520;13.352;2023-04-25T07:46:52;100350.53;;;14.83;45.98
31044;BME280;17710;52.520;13.352;2023-04-25T07:49:18;100346.38;;;15.07;45.09
31044;BME280;17710;52.520;13.352;2023-04-25T07:51:45;100354.25;;;14.95;44.84
31044;BME280;17710;52.520;13.352;2023-04-25T07:54:14;100354.47;;;15.20;44.72
31044;BME280;17710;52.520;13.352;2023-04-25T07:56:41;100355.25;;;15.36;44.02
31044;BME280;17710;52.520;13.352;2023-04-25T07:59:07;100363.06;;;15.39;43.56
31044;BME280;17710;52.520;13.352;2023-04-25T08:01:34;100364.03;;;15.52;43.12
31044;BME280;17710;52.520;13.352;2023-04-25T08:04:00;100363.22;;;15.36;41.87
31044;BME280;17710;52.520;13.352;2023-04-25T08:06:27;100373.06;;;15.06;41.98
31044;BME280;17710;52.520;13.352;2023-04-25T08:08:53;100365.63;;;14.97;42.05
31044;BME280;17710;52.520;13.352;2023-04-25T08:11:21;100375.38;;;15.12;41.91
31044;BME280;17710;52.520;13.352;2023-04-25T08:13:47;100375.69;;;14.92;42.43
31044;BME280;17710;52.520;13.352;2023-04-25T08:16:14;100381.03;;;15.36;41.95
31044;BME280;17710;52.520;13.352;2023-04-25T08:18:43;100376.56;;;15.50;41.53
31044;BME280;17710;52.520;13.352;2023-04-25T08:21:10;100385.88;;;15.43;41.38
31044;BME280;17710;52.520;13.352;2023-04-25T08:23:38;100383.47;;;15.54;40.75
31044;BME280;17710;52.520;13.352;2023-04-25T08:26:04;100394.47;;;15.48;40.83
31044;BME280;17710;52.520;13.352;2023-04-25T08:28:32;100382.09;;;15.76;40.47
31044;BME280;17710;52.520;13.352;2023-04-25T08:30:58;100387.22;;;16.07;39.56
31044;BME280;17710;52.520;13.352;2023-04-25T08:33:25;100399.13;;;16.43;38.22
31044;BME280;17710;52.520;13.352;2023-04-25T08:35:52;100403.31;;;16.06;37.94
31044;BME280;17710;52.520;13.352;2023-04-25T08:38:18;100403.38;;;15.47;38.67
31044;BME280;17710;52.520;13.352;2023-04-25T08:40:49;100409.25;;;15.38;38.45
31044;BME280;17710;52.520;13.352;2023-04-25T08:43:17;100404.31;;;15.32;37.26
31044;BME280;17710;52.520;13.352;2023-04-25T08:45:46;100418.25;;;15.66;37.27
31044;BME280;17710;52.520;13.352;2023-04-25T08:48:15;100409.13;;;15.70;36.18
31044;BME280;17710;52.520;13.352;2023-04-25T08:50:45;100409.78;;;16.02;35.54
31044;BME280;17710;52.520;13.352;2023-04-25T08:53:16;100420.72;;;16.11;34.82
31044;BME280;17710;52.520;13.352;2023-04-25T08:55:56;100426.59;;;16.16;34.63
31044;BME280;17710;52.520;13.352;2023-04-25T08:58:34;100421.97;;;16.06;34.83
31044;BME280;17710;52.520;13.352;2023-04-25T09:01:03;100424.19;;;16.40;33.84
31044;BME280;17710;52.520;13.352;2023-04-25T09:03:30;100419.06;;;16.23;33.00
31044;BME280;17710;52.520;13.352;2023-04-25T09:05:57;100433.47;;;16.20;33.18
31044;BME280;17710;52.520;13.352;2023-04-25T09:08:24;100423.47;;;16.24;32.77
31044;BME280;17710;52.520;13.352;2023-04-25T09:10:50;100428.78;;;16.24;32.87
31044;BME280;17710;52.520;13.352;2023-04-25T09:13:24;100432.72;;;16.73;31.83
31044;BME280;17710;52.520;13.352;2023-04-25T09:15:56;100436.66;;;16.81;32.10
31044;BME280;17710;52.520;13.352;2023-04-25T09:18:24;100435.75;;;16.67;31.85
31044;BME280;17710;52.520;13.352;2023-04-25T09:20:52;100441.88;;;17.09;31.22
31044;BME280;17710;52.520;13.352;2023-04-25T09:23:20;100447.03;;;17.12;31.63
31044;BME280;17710;52.520;13.352;2023-04-25T09:25:51;100439.91;;;16.86;31.91
31044;BME280;17710;52.520;13.352;2023-04-25T09:28:23;100449.97;;;17.07;31.58
31044;BME280;17710;52.520;13.352;2023-04-25T09:30:54;100448.22;;;16.94;31.36
31044;BME280;17710;52.520;13.352;2023-04-25T09:33:29;100454.06;;;16.59;31.84
31044;BME280;17710;52.520;13.352;2023-04-25T09:36:02;100444.06;;;16.63;31.99
31044;BME280;17710;52.520;13.352;2023-04-25T09:38:30;100455.19;;;15.86;31.50
31044;BME280;17710;52.520;13.352;2023-04-25T09:40:58;100460.69;;;15.39;31.68
31044;BME280;17710;52.520;13.352;2023-04-25T09:43:26;100464.56;;;15.63;30.77
31044;BME280;17710;52.520;13.352;2023-04-25T09:45:54;100465.84;;;15.72;30.86
31044;BME280;17710;52.520;13.352;2023-04-25T09:48:23;100465.38;;;15.93;30.65
31044;BME280;17710;52.520;13.352;2023-04-25T09:51:05;100454.19;;;16.44;30.10
31044;BME280;17710;52.520;13.352;2023-04-25T09:53:36;100462.28;;;16.83;29.23
31044;BME280;17710;52.520;13.352;2023-04-25T09:56:04;100470.88;;;16.19;29.78
31044;BME280;17710;52.520;13.352;2023-04-25T09:58:32;100466.44;;;15.47;31.03
31044;BME280;17710;52.520;13.352;2023-04-25T10:00:59;100477.25;;;16.30;30.14
31044;BME280;17710;52.520;13.352;2023-04-25T10:03:28;100474.53;;;16.59;29.41
31044;BME280;17710;52.520;13.352;2023-04-25T10:05:57;100472.91;;;16.97;28.78
31044;BME280;17710;52.520;13.352;2023-04-25T10:08:29;100471.59;;;16.90;28.96
31044;BME280;17710;52.520;13.352;2023-04-25T10:10:59;100465.78;;;16.57;29.22
31044;BME280;17710;52.520;13.352;2023-04-25T10:13:26;100470.47;;;16.39;29.59
31044;BME280;17710;52.520;13.352;2023-04-25T10:15:53;100466.97;;;16.24;29.51
31044;BME280;17710;52.520;13.352;2023-04-25T10:18:20;100474.47;;;16.46;29.56
31044;BME280;17710;52.520;13.352;2023-04-25T10:20:47;100470.56;;;16.52;28.90
31044;BME280;17710;52.520;13.352;2023-04-25T10:23:14;100476.50;;;15.86;29.86
31044;BME280;17710;52.520;13.352;2023-04-25T10:25:43;100477.06;;;16.33;29.64
31044;BME280;17710;52.520;13.352;2023-04-25T10:28:10;100477.88;;;15.63;30.86
31044;BME280;17710;52.520;13.352;2023-04-25T10:30:36;100484.97;;;15.92;30.69
31044;BME280;17710;52.520;13.352;2023-04-25T10:33:16;100478.09;;;16.45;29.63
31044;BME280;17710;52.520;13.352;2023-04-25T10:35:44;100483.63;;;16.83;29.01
31044;BME280;17710;52.520;13.352;2023-04-25T10:38:13;100492.34;;;17.26;28.46
31044;BME280;17710;52.520;13.352;2023-04-25T10:40:40;100494.69;;;16.91;28.46
31044;BME280;17710;52.520;13.352;2023-04-25T10:43:39;100494.06;;;17.00;28.22
31044;BME280;17710;52.520;13.352;2023-04-25T10:46:19;100496.84;;;16.72;28.98
31044;BME280;17710;52.520;13.352;2023-04-25T10:48:49;100499.44;;;16.31;29.46
31044;BME280;17710;52.520;13.352;2023-04-25T10:51:18;100489.09;;;16.67;28.98
31044;BME280;17710;52.520;13.352;2023-04-25T10:53:57;100500.34;;;16.58;28.96
31044;BME280;17710;52.520;13.352;2023-04-25T10:56:25;100496.34;;;16.80;28.68
31044;BME280;17710;52.520;13.352;2023-04-25T10:59:03;100496.84;;;17.26;28.14
31044;BME280;17710;52.520;13.352;2023-04-25T11:01:36;100507.69;;;17.23;28.02
31044;BME280;17710;52.520;13.352;2023-04-25T11:04:03;100504.81;;;16.86;28.40
31044;BME280;17710;52.520;13.352;2023-04-25T11:06:37;100496.53;;;16.77;28.13
31044;BME280;17710;52.520;13.352;2023-04-25T11:09:10;100508.88;;;16.92;28.19
31044;BME280;17710;52.520;13.352;2023-04-25T11:11:38;100517.47;;;17.09;28.01
31044;BME280;17710;52.520;13.352;2023-04-25T11:14:06;100527.22;;;16.55;28.40
31044;BME280;17710;52.520;13.352;2023-04-25T11:16:32;100534.78;;;16.06;29.64
31044;BME280;17710;52.520;13.352;2023-04-25T11:18:59;100539.31;;;16.04;30.07
31044;BME280;17710;52.520;13.352;2023-04-25T11:21:25;100545.81;;;16.00;30.00
31044;BME280;17710;52.520;13.352;2023-04-25T11:23:53;100537.31;;;15.93;30.02
31044;BME280;17710;52.520;13.352;2023-04-25T11:26:19;100546.28;;;16.07;28.90
31044;BME280;17710;52.520;13.352;2023-04-25T11:28:46;100545.59;;;16.03;28.45
31044;BME280;17710;52.520;13.352;2023-04-25T11:31:14;100556.66;;;16.11;28.05
31044;BME280;17710;52.520;13.352;2023-04-25T11:33:40;100553.59;;;16.03;27.42
31044;BME280;17710;52.520;13.352;2023-04-25T11:36:08;100550.38;;;16.12;27.21
31044;BME280;17710;52.520;13.352;2023-04-25T11:38:34;100547.72;;;16.26;27.04
31044;BME280;17710;52.520;13.352;2023-04-25T11:41:00;100549.53;;;16.12;26.83
31044;BME280;17710;52.520;13.352;2023-04-25T11:43:27;100549.97;;;15.90;26.67
31044;BME280;17710;52.520;13.352;2023-04-25T11:45:53;100557.88;;;15.91;27.01
31044;BME280;17710;52.520;13.352;2023-04-25T11:48:21;100559.88;;;15.58;27.23
31044;BME280;17710;52.520;13.352;2023-04-25T11:50:47;100564.06;;;15.92;27.22
31044;BME280;17710;52.520;13.352;2023-04-25T11:53:14;100569.63;;;15.73;27.95
31044;BME280;17710;52.520;13.352;2023-04-25T11:55:40;100558.16;;;15.87;27.83
31044;BME280;17710;52.520;13.352;2023-04-25T11:58:07;100569.50;;;16.05;27.76
31044;BME280;17710;52.520;13.352;2023-04-25T12:00:34;100568.84;;;16.44;27.53
31044;BME280;17710;52.520;13.352;2023-04-25T12:03:00;100569.53;;;16.61;27.26
31044;BME280;17710;52.520;13.352;2023-04-25T12:05:30;100570.81;;;16.97;26.83
31044;BME280;17710;52.520;13.352;2023-04-25T12:07:58;100571.50;;;17.40;26.63
31044;BME280;17710;52.520;13.352;2023-04-25T12:10:37;100571.31;;;16.75;27.26
31044;BME280;17710;52.520;13.352;2023-04-25T12:13:18;100565.22;;;16.59;27.93
31044;BME280;17710;52.520;13.352;2023-04-25T12:15:44;100578.50;;;16.60;27.67
31044;BME280;17710;52.520;13.352;2023-04-25T12:18:11;100571.06;;;16.65;26.71
31044;BME280;17710;52.520;13.352;2023-04-25T12:20:39;100566.53;;;16.94;26.16
31044;BME280;17710;52.520;13.352;2023-04-25T12:23:05;100575.63;;;17.19;25.94
31044;BME280;17710;52.520;13.352;2023-04-25T12:25:34;100576.81;;;17.27;25.50
31044;BME280;17710;52.520;13.352;2023-04-25T12:28:09;100581.69;;;17.47;24.94
31044;BME280;17710;52.520;13.352;2023-04-25T12:30:52;100571.78;;;18.02;24.41
31044;BME280;17710;52.520;13.352;2023-04-25T12:33:18;100570.09;;;18.26;24.30
31044;BME280;17710;52.520;13.352;2023-04-25T12:35:46;100572.75;;;18.13;24.54
31044;BME280;17710;52.520;13.352;2023-04-25T12:38:20;100571.59;;;18.30;24.50
31044;BME280;17710;52.520;13.352;2023-04-25T12:40:47;100583.25;;;18.42;24.54
31044;BME280;17710;52.520;13.352;2023-04-25T12:43:13;100574.81;;;18.35;24.53